sensor_id;sensor_type;location;lat;lon;timestamp;P1;durP1;ratioP1;P2;durP2;ratioP2
62024;SDS011;47978;49.118;12.146;2023-09-19T00:01:25;9.45;;;2.42;;
62024;SDS011;47978;49.118;12.146;2023-09-19T00:09:28;4.03;;;2.40;;
62024;SDS011;47978;49.118;12.146;2023-09-19T00:13:30;4.05;;;2.30;;
62024;SDS011;47978;49.118;12.146;2023-09-19T00:17:33;4.95;;;2.13;;
62024;SDS011;47978;49.118;12.146;2023-09-19T00:21:34;3.13;;;1.98;;
62024;SDS011;47978;49.118;12.146;2023-09-19T00:25:36;4.13;;;2.30;;
62024;SDS011;47978;49.118;12.146;2023-09-19T00:29:38;4.10;;;2.25;;
62024;SDS011;47978;49.118;12.146;2023-09-19T00:33:41;3.95;;;2.40;;
62024;SDS011;47978;49.118;12.146;2023-09-19T00:37:43;3.78;;;2.63;;
62024;SDS011;47978;49.118;12.146;2023-09-19T00:41:44;3.83;;;2.00;;
62024;SDS011;47978;49.118;12.146;2023-09-19T00:45:47;6.53;;;2.10;;
62024;SDS011;47978;49.118;12.146;2023-09-19T00:49:51;7.63;;;2.53;;
62024;SDS011;47978;49.118;12.146;2023-09-19T00:53:54;5.35;;;2.20;;
62024;SDS011;47978;49.118;12.146;2023-09-19T00:57:56;4.30;;;2.13;;
62024;SDS011;47978;49.118;12.146;2023-09-19T01:01:58;5.07;;;2.78;;
62024;SDS011;47978;49.118;12.146;2023-09-19T01:06:01;5.65;;;2.70;;
62024;SDS011;47978;49.118;12.146;2023-09-19T01:14:08;4.57;;;2.33;;
62024;SDS011;47978;49.118;12.146;2023-09-19T01:18:21;6.55;;;2.30;;
62024;SDS011;47978;49.118;12.146;2023-09-19T01:22:32;4.90;;;2.30;;
62024;SDS011;47978;49.118;12.146;2023-09-19T01:26:48;6.63;;;2.38;;
62024;SDS011;47978;49.118;12.146;2023-09-19T01:31:09;5.85;;;2.03;;
62024;SDS011;47978;49.118;12.146;2023-09-19T01:35:11;5.35;;;2.47;;
62024;SDS011;47978;49.118;12.146;2023-09-19T01:39:13;5.55;;;2.45;;
62024;SDS011;47978;49.118;12.146;2023-09-19T01:43:17;4.25;;;2.25;;
62024;SDS011;47978;49.118;12.146;2023-09-19T01:47:26;6.43;;;2.55;;
62024;SDS011;47978;49.118;12.146;2023-09-19T01:51:34;4.45;;;2.20;;
62024;SDS011;47978;49.118;12.146;2023-09-19T01:55:43;3.25;;;2.10;;
62024;SDS011;47978;49.118;12.146;2023-09-19T01:59:50;3.75;;;2.47;;
62024;SDS011;47978;49.118;12.146;2023-09-19T02:03:56;4.90;;;2.40;;
62024;SDS011;47978;49.118;12.146;2023-09-19T02:07:59;4.40;;;2.60;;
62024;SDS011;47978;49.118;12.146;2023-09-19T02:12:01;5.35;;;2.28;;
62024;SDS011;47978;49.118;12.146;2023-09-19T02:16:02;7.32;;;2.58;;
62024;SDS011;47978;49.118;12.146;2023-09-19T02:20:06;2.88;;;2.33;;
62024;SDS011;47978;49.118;12.146;2023-09-19T02:24:09;5.70;;;2.30;;
62024;SDS011;47978;49.118;12.146;2023-09-19T02:28:10;4.70;;;2.40;;
62024;SDS011;47978;49.118;12.146;2023-09-19T02:32:12;6.63;;;2.38;;
62024;SDS011;47978;49.118;12.146;2023-09-19T02:36:15;4.95;;;2.33;;
62024;SDS011;47978;49.118;12.146;2023-09-19T02:40:17;4.90;;;2.10;;
62024;SDS011;47978;49.118;12.146;2023-09-19T02:44:18;4.15;;;2.15;;
62024;SDS011;47978;49.118;12.146;2023-09-19T02:48:20;4.50;;;2.30;;
62024;SDS011;47978;49.118;12.146;2023-09-19T02:52:23;4.68;;;2.55;;
62024;SDS011;47978;49.118;12.146;2023-09-19T03:00:26;3.25;;;2.33;;
62024;SDS011;47978;49.118;12.146;2023-09-19T03:04:28;3.65;;;2.47;;
62024;SDS011;47978;49.118;12.146;2023-09-19T03:08:31;8.80;;;2.50;;
62024;SDS011;47978;49.118;12.146;2023-09-19T03:12:33;7.13;;;2.85;;
62024;SDS011;47978;49.118;12.146;2023-09-19T03:16:34;6.80;;;2.58;;
62024;SDS011;47978;49.118;12.146;2023-09-19T03:20:36;4.65;;;2.50;;
62024;SDS011;47978;49.118;12.146;2023-09-19T03:24:39;5.13;;;2.42;;
62024;SDS011;47978;49.118;12.146;2023-09-19T03:28:41;5.80;;;2.95;;
62024;SDS011;47978;49.118;12.146;2023-09-19T03:32:45;4.10;;;2.45;;
62024;SDS011;47978;49.118;12.146;2023-09-19T03:36:48;4.95;;;2.47;;
62024;SDS011;47978;49.118;12.146;2023-09-19T03:40:51;6.50;;;2.17;;
62024;SDS011;47978;49.118;12.146;2023-09-19T03:44:52;4.97;;;2.83;;
62024;SDS011;47978;49.118;12.146;2023-09-19T03:48:54;4.68;;;2.80;;
62024;SDS011;47978;49.118;12.146;2023-09-19T03:52:56;4.75;;;3.17;;
62024;SDS011;47978;49.118;12.146;2023-09-19T03:56:59;4.20;;;2.65;;
62024;SDS011;47978;49.118;12.146;2023-09-19T04:01:00;6.30;;;3.00;;
62024;SDS011;47978;49.118;12.146;2023-09-19T04:05:02;5.25;;;2.45;;
62024;SDS011;47978;49.118;12.146;2023-09-19T04:09:04;5.43;;;2.70;;
62024;SDS011;47978;49.118;12.146;2023-09-19T04:13:07;4.63;;;2.58;;
62024;SDS011;47978;49.118;12.146;2023-09-19T04:17:09;6.35;;;2.58;;
62024;SDS011;47978;49.118;12.146;2023-09-19T04:25:13;3.78;;;2.50;;
62024;SDS011;47978;49.118;12.146;2023-09-19T04:29:16;3.30;;;2.33;;
62024;SDS011;47978;49.118;12.146;2023-09-19T04:33:18;7.85;;;2.40;;
62024;SDS011;47978;49.118;12.146;2023-09-19T04:37:19;8.55;;;2.25;;
62024;SDS011;47978;49.118;12.146;2023-09-19T04:41:21;18.58;;;2.67;;
62024;SDS011;47978;49.118;12.146;2023-09-19T04:45:24;6.00;;;2.60;;
62024;SDS011;47978;49.118;12.146;2023-09-19T04:53:27;8.77;;;2.50;;
62024;SDS011;47978;49.118;12.146;2023-09-19T04:57:28;8.02;;;2.45;;
62024;SDS011;47978;49.118;12.146;2023-09-19T05:01:31;3.17;;;2.30;;
62024;SDS011;47978;49.118;12.146;2023-09-19T05:05:33;3.72;;;2.17;;
62024;SDS011;47978;49.118;12.146;2023-09-19T05:09:34;3.20;;;2.00;;
62024;SDS011;47978;49.118;12.146;2023-09-19T05:13:36;3.85;;;2.50;;
62024;SDS011;47978;49.118;12.146;2023-09-19T05:17:39;5.75;;;2.40;;
62024;SDS011;47978;49.118;12.146;2023-09-19T05:21:40;4.45;;;2.35;;
62024;SDS011;47978;49.118;12.146;2023-09-19T05:25:42;3.25;;;2.00;;
62024;SDS011;47978;49.118;12.146;2023-09-19T05:29:44;4.95;;;2.20;;
62024;SDS011;47978;49.118;12.146;2023-09-19T05:33:46;3.20;;;1.88;;
62024;SDS011;47978;49.118;12.146;2023-09-19T05:37:49;4.45;;;2.88;;
62024;SDS011;47978;49.118;12.146;2023-09-19T05:41:51;4.80;;;2.13;;
62024;SDS011;47978;49.118;12.146;2023-09-19T05:45:53;4.20;;;1.95;;
62024;SDS011;47978;49.118;12.146;2023-09-19T05:49:56;6.93;;;2.05;;
62024;SDS011;47978;49.118;12.146;2023-09-19T05:53:57;3.63;;;2.13;;
62024;SDS011;47978;49.118;12.146;2023-09-19T05:57:59;7.10;;;2.10;;
62024;SDS011;47978;49.118;12.146;2023-09-19T06:02:01;3.40;;;1.90;;
62024;SDS011;47978;49.118;12.146;2023-09-19T06:06:04;4.43;;;1.95;;
62024;SDS011;47978;49.118;12.146;2023-09-19T06:14:07;3.38;;;1.92;;
62024;SDS011;47978;49.118;12.146;2023-09-19T06:18:10;3.08;;;1.88;;
62024;SDS011;47978;49.118;12.146;2023-09-19T06:22:15;5.10;;;2.13;;
62024;SDS011;47978;49.118;12.146;2023-09-19T06:26:17;3.95;;;1.90;;
62024;SDS011;47978;49.118;12.146;2023-09-19T06:30:19;5.82;;;2.10;;
62024;SDS011;47978;49.118;12.146;2023-09-19T06:34:21;4.30;;;2.10;;
62024;SDS011;47978;49.118;12.146;2023-09-19T06:38:24;2.50;;;1.73;;
62024;SDS011;47978;49.118;12.146;2023-09-19T06:42:26;4.60;;;1.80;;
62024;SDS011;47978;49.118;12.146;2023-09-19T06:46:28;4.25;;;1.42;;
62024;SDS011;47978;49.118;12.146;2023-09-19T06:50:30;2.90;;;1.70;;
62024;SDS011;47978;49.118;12.146;2023-09-19T06:54:33;6.55;;;1.98;;
62024;SDS011;47978;49.118;12.146;2023-09-19T06:58:34;2.55;;;2.00;;
62024;SDS011;47978;49.118;12.146;2023-09-19T07:02:36;2.40;;;1.50;;
62024;SDS011;47978;49.118;12.146;2023-09-19T07:06:38;2.00;;;1.40;;
62024;SDS011;47978;49.118;12.146;2023-09-19T07:10:41;2.42;;;1.40;;
62024;SDS011;47978;49.118;12.146;2023-09-19T07:14:43;1.98;;;1.40;;
62024;SDS011;47978;49.118;12.146;2023-09-19T07:18:45;3.60;;;1.42;;
62024;SDS011;47978;49.118;12.146;2023-09-19T07:22:46;3.15;;;1.35;;
62024;SDS011;47978;49.118;12.146;2023-09-19T07:26:49;6.00;;;1.60;;
62024;SDS011;47978;49.118;12.146;2023-09-19T07:30:51;5.40;;;1.55;;
62024;SDS011;47978;49.118;12.146;2023-09-19T07:34:52;2.22;;;1.30;;
62024;SDS011;47978;49.118;12.146;2023-09-19T07:38:54;3.28;;;1.15;;
62024;SDS011;47978;49.118;12.146;2023-09-19T07:43:03;4.35;;;1.60;;
62024;SDS011;47978;49.118;12.146;2023-09-19T07:47:04;6.78;;;1.70;;
62024;SDS011;47978;49.118;12.146;2023-09-19T07:51:06;4.38;;;1.77;;
62024;SDS011;47978;49.118;12.146;2023-09-19T07:55:08;5.30;;;1.58;;
62024;SDS011;47978;49.118;12.146;2023-09-19T07:59:11;3.30;;;1.52;;
62024;SDS011;47978;49.118;12.146;2023-09-19T08:07:18;2.75;;;1.52;;
62024;SDS011;47978;49.118;12.146;2023-09-19T08:11:19;1.48;;;1.08;;
62024;SDS011;47978;49.118;12.146;2023-09-19T08:15:22;3.22;;;1.60;;
62024;SDS011;47978;49.118;12.146;2023-09-19T08:23:25;3.80;;;1.30;;
62024;SDS011;47978;49.118;12.146;2023-09-19T08:27:27;3.23;;;1.50;;
62024;SDS011;47978;49.118;12.146;2023-09-19T08:31:30;3.13;;;1.40;;
62024;SDS011;47978;49.118;12.146;2023-09-19T08:35:32;4.50;;;1.80;;
62024;SDS011;47978;49.118;12.146;2023-09-19T08:39:34;2.65;;;1.60;;
62024;SDS011;47978;49.118;12.146;2023-09-19T08:43:36;4.15;;;1.67;;
62024;SDS011;47978;49.118;12.146;2023-09-19T08:47:40;3.38;;;1.48;;
62024;SDS011;47978;49.118;12.146;2023-09-19T08:51:47;3.03;;;1.52;;
62024;SDS011;47978;49.118;12.146;2023-09-19T08:55:54;4.22;;;1.60;;
62024;SDS011;47978;49.118;12.146;2023-09-19T08:59:56;2.50;;;1.60;;
62024;SDS011;47978;49.118;12.146;2023-09-19T09:04:00;3.47;;;1.80;;
62024;SDS011;47978;49.118;12.146;2023-09-19T09:08:03;3.17;;;1.55;;
62024;SDS011;47978;49.118;12.146;2023-09-19T09:12:08;2.25;;;1.70;;
62024;SDS011;47978;49.118;12.146;2023-09-19T09:16:11;2.53;;;1.55;;
62024;SDS011;47978;49.118;12.146;2023-09-19T09:20:15;3.33;;;1.80;;
62024;SDS011;47978;49.118;12.146;2023-09-19T09:24:25;4.15;;;1.77;;
62024;SDS011;47978;49.118;12.146;2023-09-19T09:28:28;2.17;;;1.50;;
62024;SDS011;47978;49.118;12.146;2023-09-19T09:32:30;5.50;;;1.70;;
62024;SDS011;47978;49.118;12.146;2023-09-19T09:36:37;3.70;;;1.75;;
62024;SDS011;47978;49.118;12.146;2023-09-19T09:40:46;4.07;;;1.50;;
62024;SDS011;47978;49.118;12.146;2023-09-19T09:44:49;3.75;;;1.60;;
62024;SDS011;47978;49.118;12.146;2023-09-19T09:49:15;3.10;;;1.73;;
62024;SDS011;47978;49.118;12.146;2023-09-19T09:53:25;2.80;;;1.50;;
62024;SDS011;47978;49.118;12.146;2023-09-19T09:57:27;3.60;;;1.15;;
62024;SDS011;47978;49.118;12.146;2023-09-19T10:01:32;2.33;;;1.50;;
62024;SDS011;47978;49.118;12.146;2023-09-19T10:05:52;3.28;;;1.40;;
62024;SDS011;47978;49.118;12.146;2023-09-19T10:09:56;2.33;;;1.30;;
62024;SDS011;47978;49.118;12.146;2023-09-19T10:13:58;4.47;;;1.70;;
62024;SDS011;47978;49.118;12.146;2023-09-19T10:18:03;3.38;;;1.50;;
62024;SDS011;47978;49.118;12.146;2023-09-19T10:22:06;3.83;;;1.70;;
62024;SDS011;47978;49.118;12.146;2023-09-19T10:26:10;2.38;;;1.70;;
62024;SDS011;47978;49.118;12.146;2023-09-19T10:30:12;3.78;;;1.75;;
62024;SDS011;47978;49.118;12.146;2023-09-19T10:34:15;4.83;;;2.37;;
62024;SDS011;47978;49.118;12.146;2023-09-19T10:38:18;4.53;;;1.63;;
62024;SDS011;47978;49.118;12.146;2023-09-19T10:46:25;4.95;;;1.42;;
62024;SDS011;47978;49.118;12.146;2023-09-19T10:50:27;5.15;;;1.50;;
62024;SDS011;47978;49.118;12.146;2023-09-19T10:54:33;3.08;;;1.50;;
62024;SDS011;47978;49.118;12.146;2023-09-19T10:58:37;2.33;;;1.40;;
62024;SDS011;47978;49.118;12.146;2023-09-19T11:02:41;2.65;;;1.50;;
62024;SDS011;47978;49.118;12.146;2023-09-19T11:06:43;5.68;;;1.70;;
62024;SDS011;47978;49.118;12.146;2023-09-19T11:11:01;4.05;;;1.90;;
62024;SDS011;47978;49.118;12.146;2023-09-19T11:15:04;4.30;;;1.98;;
62024;SDS011;47978;49.118;12.146;2023-09-19T11:19:06;3.45;;;1.92;;
62024;SDS011;47978;49.118;12.146;2023-09-19T11:23:18;3.08;;;1.55;;
62024;SDS011;47978;49.118;12.146;2023-09-19T11:27:21;3.00;;;1.80;;
62024;SDS011;47978;49.118;12.146;2023-09-19T11:31:42;2.75;;;1.65;;
62024;SDS011;47978;49.118;12.146;2023-09-19T11:36:00;7.40;;;2.40;;
62024;SDS011;47978;49.118;12.146;2023-09-19T11:40:06;3.17;;;2.08;;
62024;SDS011;47978;49.118;12.146;2023-09-19T11:48:37;3.78;;;1.83;;
62024;SDS011;47978;49.118;12.146;2023-09-19T11:52:40;3.45;;;2.10;;
62024;SDS011;47978;49.118;12.146;2023-09-19T11:56:42;4.13;;;2.20;;
62024;SDS011;47978;49.118;12.146;2023-09-19T12:00:45;3.38;;;2.10;;
62024;SDS011;47978;49.118;12.146;2023-09-19T12:08:54;2.92;;;2.20;;
62024;SDS011;47978;49.118;12.146;2023-09-19T12:12:56;2.20;;;1.73;;
62024;SDS011;47978;49.118;12.146;2023-09-19T12:16:58;3.97;;;2.05;;
62024;SDS011;47978;49.118;12.146;2023-09-19T12:21:01;3.38;;;1.80;;
62024;SDS011;47978;49.118;12.146;2023-09-19T12:29:10;3.97;;;2.35;;
62024;SDS011;47978;49.118;12.146;2023-09-19T12:33:15;3.65;;;2.28;;
62024;SDS011;47978;49.118;12.146;2023-09-19T12:37:18;3.20;;;2.20;;
62024;SDS011;47978;49.118;12.146;2023-09-19T12:45:22;8.57;;;2.30;;
62024;SDS011;47978;49.118;12.146;2023-09-19T12:49:23;3.15;;;1.90;;
62024;SDS011;47978;49.118;12.146;2023-09-19T12:53:26;2.88;;;1.50;;
62024;SDS011;47978;49.118;12.146;2023-09-19T12:57:28;3.47;;;1.70;;
62024;SDS011;47978;49.118;12.146;2023-09-19T13:01:30;3.15;;;1.92;;
62024;SDS011;47978;49.118;12.146;2023-09-19T13:05:46;2.45;;;1.58;;
62024;SDS011;47978;49.118;12.146;2023-09-19T13:10:03;6.10;;;1.52;;
62024;SDS011;47978;49.118;12.146;2023-09-19T13:14:16;6.45;;;1.45;;
62024;SDS011;47978;49.118;12.146;2023-09-19T13:18:19;2.97;;;1.30;;
62024;SDS011;47978;49.118;12.146;2023-09-19T13:22:36;3.92;;;1.95;;
62024;SDS011;47978;49.118;12.146;2023-09-19T13:26:42;5.25;;;1.70;;
62024;SDS011;47978;49.118;12.146;2023-09-19T13:30:44;4.75;;;1.30;;
62024;SDS011;47978;49.118;12.146;2023-09-19T13:34:46;2.30;;;1.40;;
62024;SDS011;47978;49.118;12.146;2023-09-19T13:38:47;3.38;;;1.30;;
62024;SDS011;47978;49.118;12.146;2023-09-19T13:42:50;2.60;;;1.60;;
62024;SDS011;47978;49.118;12.146;2023-09-19T13:50:54;2.45;;;1.55;;
62024;SDS011;47978;49.118;12.146;2023-09-19T13:54:55;2.17;;;1.55;;
62024;SDS011;47978;49.118;12.146;2023-09-19T13:58:59;3.08;;;1.50;;
62024;SDS011;47978;49.118;12.146;2023-09-19T14:03:00;7.35;;;1.60;;
62024;SDS011;47978;49.118;12.146;2023-09-19T14:07:02;5.28;;;1.70;;
62024;SDS011;47978;49.118;12.146;2023-09-19T14:11:05;4.87;;;1.57;;
62024;SDS011;47978;49.118;12.146;2023-09-19T14:15:09;3.05;;;1.70;;
62024;SDS011;47978;49.118;12.146;2023-09-19T14:19:10;4.70;;;1.88;;
62024;SDS011;47978;49.118;12.146;2023-09-19T14:23:12;1.00;;;0.82;;
62024;SDS011;47978;49.118;12.146;2023-09-19T14:27:13;4.15;;;1.67;;
62024;SDS011;47978;49.118;12.146;2023-09-19T14:31:16;4.45;;;1.70;;
62024;SDS011;47978;49.118;12.146;2023-09-19T14:35:18;2.88;;;1.80;;
62024;SDS011;47978;49.118;12.146;2023-09-19T14:39:20;4.10;;;1.90;;
62024;SDS011;47978;49.118;12.146;2023-09-19T14:43:21;3.30;;;1.63;;
62024;SDS011;47978;49.118;12.146;2023-09-19T14:47:24;4.95;;;1.77;;
62024;SDS011;47978;49.118;12.146;2023-09-19T14:51:30;3.63;;;1.67;;
62024;SDS011;47978;49.118;12.146;2023-09-19T14:55:31;2.70;;;1.50;;
62024;SDS011;47978;49.118;12.146;2023-09-19T14:59:37;2.33;;;1.38;;
62024;SDS011;47978;49.118;12.146;2023-09-19T15:03:41;2.40;;;1.33;;
62024;SDS011;47978;49.118;12.146;2023-09-19T15:07:43;3.78;;;1.83;;
62024;SDS011;47978;49.118;12.146;2023-09-19T15:11:45;3.92;;;1.30;;
62024;SDS011;47978;49.118;12.146;2023-09-19T15:15:46;6.05;;;2.30;;
62024;SDS011;47978;49.118;12.146;2023-09-19T15:19:50;3.13;;;1.70;;
62024;SDS011;47978;49.118;12.146;2023-09-19T15:23:52;4.25;;;1.75;;
62024;SDS011;47978;49.118;12.146;2023-09-19T15:27:53;3.08;;;1.52;;
62024;SDS011;47978;49.118;12.146;2023-09-19T15:31:55;4.20;;;1.85;;
62024;SDS011;47978;49.118;12.146;2023-09-19T15:36:05;3.92;;;1.90;;
62024;SDS011;47978;49.118;12.146;2023-09-19T15:40:07;1.80;;;1.25;;
62024;SDS011;47978;49.118;12.146;2023-09-19T15:44:13;2.75;;;1.42;;
62024;SDS011;47978;49.118;12.146;2023-09-19T15:48:15;2.67;;;1.42;;
62024;SDS011;47978;49.118;12.146;2023-09-19T15:52:18;4.32;;;1.70;;
62024;SDS011;47978;49.118;12.146;2023-09-19T16:00:22;2.60;;;1.60;;
62024;SDS011;47978;49.118;12.146;2023-09-19T16:04:24;2.60;;;1.60;;
62024;SDS011;47978;49.118;12.146;2023-09-19T16:08:26;3.38;;;1.60;;
62024;SDS011;47978;49.118;12.146;2023-09-19T16:16:29;3.25;;;1.55;;
62024;SDS011;47978;49.118;12.146;2023-09-19T16:20:31;3.40;;;1.40;;
62024;SDS011;47978;49.118;12.146;2023-09-19T16:24:35;2.53;;;1.50;;
62024;SDS011;47978;49.118;12.146;2023-09-19T16:28:36;2.53;;;1.40;;
62024;SDS011;47978;49.118;12.146;2023-09-19T16:32:38;3.23;;;1.60;;
62024;SDS011;47978;49.118;12.146;2023-09-19T16:36:40;4.25;;;2.13;;
62024;SDS011;47978;49.118;12.146;2023-09-19T16:40:51;2.58;;;1.65;;
62024;SDS011;47978;49.118;12.146;2023-09-19T16:44:54;4.63;;;1.55;;
62024;SDS011;47978;49.118;12.146;2023-09-19T16:48:55;4.97;;;1.90;;
62024;SDS011;47978;49.118;12.146;2023-09-19T16:52:59;8.90;;;2.28;;
62024;SDS011;47978;49.118;12.146;2023-09-19T16:57:03;2.47;;;1.67;;
62024;SDS011;47978;49.118;12.146;2023-09-19T17:01:06;3.13;;;1.90;;
62024;SDS011;47978;49.118;12.146;2023-09-19T17:05:07;4.28;;;1.92;;
62024;SDS011;47978;49.118;12.146;2023-09-19T17:09:09;4.72;;;1.85;;
62024;SDS011;47978;49.118;12.146;2023-09-19T17:13:12;2.20;;;1.60;;
62024;SDS011;47978;49.118;12.146;2023-09-19T17:17:14;2.47;;;1.65;;
62024;SDS011;47978;49.118;12.146;2023-09-19T17:21:15;5.82;;;1.90;;
62024;SDS011;47978;49.118;12.146;2023-09-19T17:25:17;2.78;;;1.77;;
62024;SDS011;47978;49.118;12.146;2023-09-19T17:29:19;3.50;;;1.85;;
62024;SDS011;47978;49.118;12.146;2023-09-19T17:33:21;2.65;;;1.75;;
62024;SDS011;47978;49.118;12.146;2023-09-19T17:37:23;3.55;;;2.00;;
62024;SDS011;47978;49.118;12.146;2023-09-19T17:41:24;4.40;;;1.83;;
62024;SDS011;47978;49.118;12.146;2023-09-19T17:45:28;3.60;;;2.00;;
62024;SDS011;47978;49.118;12.146;2023-09-19T17:49:30;3.13;;;1.85;;
62024;SDS011;47978;49.118;12.146;2023-09-19T17:53:32;3.10;;;1.85;;
62024;SDS011;47978;49.118;12.146;2023-09-19T17:57:33;5.63;;;2.28;;
62024;SDS011;47978;49.118;12.146;2023-09-19T18:01:36;3.65;;;2.05;;
62024;SDS011;47978;49.118;12.146;2023-09-19T18:05:42;4.63;;;2.75;;
62024;SDS011;47978;49.118;12.146;2023-09-19T18:09:44;3.67;;;2.25;;
62024;SDS011;47978;49.118;12.146;2023-09-19T18:13:46;4.18;;;1.98;;
62024;SDS011;47978;49.118;12.146;2023-09-19T18:17:49;4.28;;;2.35;;
62024;SDS011;47978;49.118;12.146;2023-09-19T18:25:55;3.75;;;1.92;;
62024;SDS011;47978;49.118;12.146;2023-09-19T18:29:57;4.25;;;2.10;;
62024;SDS011;47978;49.118;12.146;2023-09-19T18:33:59;3.45;;;2.05;;
62024;SDS011;47978;49.118;12.146;2023-09-19T18:38:01;7.45;;;2.35;;
62024;SDS011;47978;49.118;12.146;2023-09-19T18:42:03;5.15;;;1.90;;
62024;SDS011;47978;49.118;12.146;2023-09-19T18:46:05;7.63;;;2.10;;
62024;SDS011;47978;49.118;12.146;2023-09-19T18:50:09;3.90;;;2.50;;
62024;SDS011;47978;49.118;12.146;2023-09-19T18:54:11;6.07;;;2.65;;
62024;SDS011;47978;49.118;12.146;2023-09-19T18:58:14;2.80;;;1.95;;
62024;SDS011;47978;49.118;12.146;2023-09-19T19:02:15;5.28;;;2.60;;
62024;SDS011;47978;49.118;12.146;2023-09-19T19:06:18;7.43;;;2.35;;
62024;SDS011;47978;49.118;12.146;2023-09-19T19:10:20;4.28;;;2.50;;
62024;SDS011;47978;49.118;12.146;2023-09-19T19:14:22;4.85;;;2.08;;
62024;SDS011;47978;49.118;12.146;2023-09-19T19:18:23;6.03;;;2.42;;
62024;SDS011;47978;49.118;12.146;2023-09-19T19:22:26;3.38;;;2.22;;
62024;SDS011;47978;49.118;12.146;2023-09-19T19:26:29;2.75;;;2.08;;
62024;SDS011;47978;49.118;12.146;2023-09-19T19:30:31;4.97;;;2.15;;
62024;SDS011;47978;49.118;12.146;2023-09-19T19:34:32;3.50;;;2.38;;
62024;SDS011;47978;49.118;12.146;2023-09-19T19:38:35;4.88;;;2.40;;
62024;SDS011;47978;49.118;12.146;2023-09-19T19:42:37;3.58;;;2.45;;
62024;SDS011;47978;49.118;12.146;2023-09-19T19:46:39;6.43;;;2.80;;
62024;SDS011;47978;49.118;12.146;2023-09-19T19:50:41;5.90;;;2.40;;
62024;SDS011;47978;49.118;12.146;2023-09-19T19:54:44;6.20;;;3.30;;
62024;SDS011;47978;49.118;12.146;2023-09-19T19:58:45;4.72;;;2.22;;
62024;SDS011;47978;49.118;12.146;2023-09-19T20:02:47;5.13;;;2.42;;
62024;SDS011;47978;49.118;12.146;2023-09-19T20:06:49;3.80;;;2.38;;
62024;SDS011;47978;49.118;12.146;2023-09-19T20:10:52;4.38;;;2.80;;
62024;SDS011;47978;49.118;12.146;2023-09-19T20:18:57;3.90;;;2.33;;
62024;SDS011;47978;49.118;12.146;2023-09-19T20:22:59;4.60;;;2.42;;
62024;SDS011;47978;49.118;12.146;2023-09-19T20:27:03;3.72;;;2.35;;
62024;SDS011;47978;49.118;12.146;2023-09-19T20:31:05;3.22;;;2.22;;
62024;SDS011;47978;49.118;12.146;2023-09-19T20:35:07;3.45;;;2.53;;
62024;SDS011;47978;49.118;12.146;2023-09-19T20:39:09;4.75;;;2.47;;
62024;SDS011;47978;49.118;12.146;2023-09-19T20:43:12;2.78;;;2.33;;
62024;SDS011;47978;49.118;12.146;2023-09-19T20:47:13;5.72;;;2.80;;
62024;SDS011;47978;49.118;12.146;2023-09-19T20:51:15;4.40;;;2.47;;
62024;SDS011;47978;49.118;12.146;2023-09-19T20:55:17;6.75;;;3.08;;
62024;SDS011;47978;49.118;12.146;2023-09-19T20:59:20;6.78;;;2.28;;
62024;SDS011;47978;49.118;12.146;2023-09-19T21:03:21;4.68;;;2.70;;
62024;SDS011;47978;49.118;12.146;2023-09-19T21:07:23;5.07;;;2.58;;
62024;SDS011;47978;49.118;12.146;2023-09-19T21:11:24;6.20;;;2.53;;
62024;SDS011;47978;49.118;12.146;2023-09-19T21:15:27;3.42;;;2.58;;
62024;SDS011;47978;49.118;12.146;2023-09-19T21:19:29;3.67;;;2.50;;
62024;SDS011;47978;49.118;12.146;2023-09-19T21:23:31;4.70;;;3.00;;
62024;SDS011;47978;49.118;12.146;2023-09-19T21:27:33;5.05;;;2.72;;
62024;SDS011;47978;49.118;12.146;2023-09-19T21:31:36;5.65;;;3.05;;
62024;SDS011;47978;49.118;12.146;2023-09-19T21:35:43;5.82;;;3.22;;
62024;SDS011;47978;49.118;12.146;2023-09-19T21:39:45;6.40;;;2.63;;
62024;SDS011;47978;49.118;12.146;2023-09-19T21:43:47;5.88;;;2.83;;
62024;SDS011;47978;49.118;12.146;2023-09-19T21:47:50;7.50;;;3.30;;
62024;SDS011;47978;49.118;12.146;2023-09-19T21:51:52;3.55;;;2.42;;
62024;SDS011;47978;49.118;12.146;2023-09-19T21:55:57;3.88;;;2.92;;
62024;SDS011;47978;49.118;12.146;2023-09-19T22:00:00;4.05;;;2.58;;
62024;SDS011;47978;49.118;12.146;2023-09-19T22:04:03;4.30;;;3.05;;
62024;SDS011;47978;49.118;12.146;2023-09-19T22:08:04;5.03;;;2.85;;
62024;SDS011;47978;49.118;12.146;2023-09-19T22:12:06;4.00;;;3.03;;
62024;SDS011;47978;49.118;12.146;2023-09-19T22:16:08;7.82;;;2.90;;
62024;SDS011;47978;49.118;12.146;2023-09-19T22:20:12;6.38;;;2.85;;
62024;SDS011;47978;49.118;12.146;2023-09-19T22:24:14;4.70;;;2.83;;
62024;SDS011;47978;49.118;12.146;2023-09-19T22:28:15;4.20;;;3.05;;
62024;SDS011;47978;49.118;12.146;2023-09-19T22:32:17;6.95;;;2.90;;
62024;SDS011;47978;49.118;12.146;2023-09-19T22:36:20;4.30;;;2.85;;
62024;SDS011;47978;49.118;12.146;2023-09-19T22:40:23;13.60;;;3.03;;
62024;SDS011;47978;49.118;12.146;2023-09-19T22:44:24;5.60;;;3.03;;
62024;SDS011;47978;49.118;12.146;2023-09-19T22:48:26;10.13;;;2.65;;
62024;SDS011;47978;49.118;12.146;2023-09-19T22:52:29;6.53;;;2.60;;
62024;SDS011;47978;49.118;12.146;2023-09-19T22:56:30;4.60;;;2.10;;
62024;SDS011;47978;49.118;12.146;2023-09-19T23:00:32;5.13;;;2.50;;
62024;SDS011;47978;49.118;12.146;2023-09-19T23:04:33;4.05;;;2.50;;
62024;SDS011;47978;49.118;12.146;2023-09-19T23:08:36;5.40;;;2.60;;
62024;SDS011;47978;49.118;12.146;2023-09-19T23:12:38;4.32;;;2.80;;
62024;SDS011;47978;49.118;12.146;2023-09-19T23:16:39;4.13;;;2.63;;
62024;SDS011;47978;49.118;12.146;2023-09-19T23:20:41;3.97;;;2.53;;
62024;SDS011;47978;49.118;12.146;2023-09-19T23:24:44;5.17;;;2.60;;
62024;SDS011;47978;49.118;12.146;2023-09-19T23:28:46;4.13;;;2.83;;
62024;SDS011;47978;49.118;12.146;2023-09-19T23:32:47;5.20;;;2.42;;
62024;SDS011;47978;49.118;12.146;2023-09-19T23:36:49;5.30;;;3.10;;
62024;SDS011;47978;49.118;12.146;2023-09-19T23:40:52;4.00;;;2.63;;
62024;SDS011;47978;49.118;12.146;2023-09-19T23:44:53;3.00;;;2.47;;
62024;SDS011;47978;49.118;12.146;2023-09-19T23:48:55;3.63;;;2.65;;
62024;SDS011;47978;49.118;12.146;2023-09-19T23:52:57;7.47;;;2.70;;
62024;SDS011;47978;49.118;12.146;2023-09-19T23:57:00;3.22;;;2.38;;
